sensor_id;sensor_type;location;lat;lon;timestamp;pressure;altitude;pressure_sealevel;temperature;humidity
41688;BME280;27371;42.686;23.362;2024-03-08T00:00:13;163403.84;;;4.63;100.00
41688;BME280;27371;42.686;23.362;2024-03-08T00:02:39;163361.25;;;4.46;100.00
41688;BME280;27371;42.686;23.362;2024-03-08T00:05:06;163266.75;;;4.10;100.00
41688;BME280;27371;42.686;23.362;2024-03-08T00:07:37;163169.63;;;3.73;100.00
41688;BME280;27371;42.686;23.362;2024-03-08T00:10:09;163208.22;;;3.88;100.00
41688;BME280;27371;42.686;23.362;2024-03-08T00:12:42;163218.88;;;3.92;100.00
41688;BME280;27371;42.686;23.362;2024-03-08T00:15:12;163253.44;;;4.05;100.00
41688;BME280;27371;42.686;23.362;2024-03-08T00:17:39;163232.13;;;3.97;100.00
41688;BME280;27371;42.686;23.362;2024-03-08T00:20:06;163145.66;;;3.64;100.00
41688;BME280;27371;42.686;23.362;2024-03-08T00:22:37;163221.53;;;3.93;100.00
41688;BME280;27371;42.686;23.362;2024-03-08T00:25:04;163218.88;;;3.92;100.00
41688;BME280;27371;42.686;23.362;2024-03-08T00:27:30;163137.69;;;3.61;100.00
41688;BME280;27371;42.686;23.362;2024-03-08T00:29:58;163164.31;;;3.71;100.00
41688;BME280;27371;42.686;23.362;2024-03-08T00:32:24;163278.75;;;4.15;100.00
41688;BME280;27371;42.686;23.362;2024-03-08T00:34:50;163289.38;;;4.19;100.00
41688;BME280;27371;42.686;23.362;2024-03-08T00:37:20;163273.41;;;4.13;100.00
41688;BME280;27371;42.686;23.362;2024-03-08T00:39:48;163234.84;;;3.98;100.00
41688;BME280;27371;42.686;23.362;2024-03-08T00:42:15;163288.03;;;4.18;100.00
41688;BME280;27371;42.686;23.362;2024-03-08T00:44:41;163245.44;;;4.02;100.00
41688;BME280;27371;42.686;23.362;2024-03-08T00:47:06;163293.38;;;4.20;100.00
41688;BME280;27371;42.686;23.362;2024-03-08T00:49:33;163256.13;;;4.06;100.00
41688;BME280;27371;42.686;23.362;2024-03-08T00:51:58;163145.66;;;3.64;100.00
41688;BME280;27371;42.686;23.362;2024-03-08T00:54:24;163107.09;;;3.49;100.00
41688;BME280;27371;42.686;23.362;2024-03-08T00:56:50;163035.25;;;3.21;100.00
41688;BME280;27371;42.686;23.362;2024-03-08T00:59:16;163088.44;;;3.42;100.00
41688;BME280;27371;42.686;23.362;2024-03-08T01:04:15;163144.34;;;3.63;100.00
41688;BME280;27371;42.686;23.362;2024-03-08T01:06:41;163121.72;;;3.54;100.00
41688;BME280;27371;42.686;23.362;2024-03-08T01:09:11;163133.72;;;3.59;100.00
41688;BME280;27371;42.686;23.362;2024-03-08T01:11:37;163100.44;;;3.46;100.00
41688;BME280;27371;42.686;23.362;2024-03-08T01:14:03;163107.09;;;3.49;100.00
41688;BME280;27371;42.686;23.362;2024-03-08T01:16:29;163101.75;;;3.47;100.00
41688;BME280;27371;42.686;23.362;2024-03-08T01:18:55;163085.81;;;3.41;100.00
41688;BME280;27371;42.686;23.362;2024-03-08T01:21:20;163112.44;;;3.51;100.00
41688;BME280;27371;42.686;23.362;2024-03-08T01:23:46;163107.09;;;3.49;100.00
41688;BME280;27371;42.686;23.362;2024-03-08T01:26:12;163144.34;;;3.63;100.00
41688;BME280;27371;42.686;23.362;2024-03-08T01:28:37;163151.00;;;3.66;100.00
41688;BME280;27371;42.686;23.362;2024-03-08T01:31:03;163152.31;;;3.66;100.00
41688;BME280;27371;42.686;23.362;2024-03-08T01:33:29;163141.69;;;3.62;100.00
41688;BME280;27371;42.686;23.362;2024-03-08T01:35:55;163153.69;;;3.67;100.00
41688;BME280;27371;42.686;23.362;2024-03-08T01:38:25;163053.91;;;3.28;100.00
41688;BME280;27371;42.686;23.362;2024-03-08T01:40:51;163009.97;;;3.11;100.00
41688;BME280;27371;42.686;23.362;2024-03-08T01:45:44;163035.25;;;3.21;100.00
41688;BME280;27371;42.686;23.362;2024-03-08T01:48:10;163043.25;;;3.24;100.00
41688;BME280;27371;42.686;23.362;2024-03-08T01:50:38;163085.81;;;3.41;100.00
41688;BME280;27371;42.686;23.362;2024-03-08T01:53:05;163085.81;;;3.41;100.00
41688;BME280;27371;42.686;23.362;2024-03-08T01:55:32;163079.16;;;3.38;100.00
41688;BME280;27371;42.686;23.362;2024-03-08T01:57:58;163060.56;;;3.31;100.00
41688;BME280;27371;42.686;23.362;2024-03-08T02:00:25;163067.16;;;3.33;100.00
41688;BME280;27371;42.686;23.362;2024-03-08T02:02:54;163093.78;;;3.44;100.00
41688;BME280;27371;42.686;23.362;2024-03-08T02:05:20;163156.31;;;3.68;100.00
41688;BME280;27371;42.686;23.362;2024-03-08T02:07:46;163153.69;;;3.67;100.00
41688;BME280;27371;42.686;23.362;2024-03-08T02:10:12;163218.88;;;3.92;100.00
41688;BME280;27371;42.686;23.362;2024-03-08T02:12:38;163230.81;;;3.96;100.00
41688;BME280;27371;42.686;23.362;2024-03-08T02:15:05;163209.53;;;3.88;100.00
41688;BME280;27371;42.686;23.362;2024-03-08T02:17:32;163301.34;;;4.23;100.00
41688;BME280;27371;42.686;23.362;2024-03-08T02:19:59;163312.03;;;4.28;100.00
41688;BME280;27371;42.686;23.362;2024-03-08T02:22:27;163289.38;;;4.19;100.00
41688;BME280;27371;42.686;23.362;2024-03-08T02:24:55;163225.53;;;3.94;100.00
41688;BME280;27371;42.686;23.362;2024-03-08T02:27:24;163112.44;;;3.51;100.00
41688;BME280;27371;42.686;23.362;2024-03-08T02:29:52;163063.19;;;3.32;100.00
41688;BME280;27371;42.686;23.362;2024-03-08T02:32:21;163091.13;;;3.43;100.00
41688;BME280;27371;42.686;23.362;2024-03-08T02:34:47;163121.72;;;3.54;100.00
41688;BME280;27371;42.686;23.362;2024-03-08T02:37:13;163133.72;;;3.59;100.00
41688;BME280;27371;42.686;23.362;2024-03-08T02:39:38;163128.38;;;3.57;100.00
41688;BME280;27371;42.686;23.362;2024-03-08T02:42:04;163120.41;;;3.54;100.00
41688;BME280;27371;42.686;23.362;2024-03-08T02:44:30;163128.38;;;3.57;100.00
41688;BME280;27371;42.686;23.362;2024-03-08T02:46:55;163084.50;;;3.40;100.00
41688;BME280;27371;42.686;23.362;2024-03-08T02:49:21;163095.09;;;3.44;100.00
41688;BME280;27371;42.686;23.362;2024-03-08T02:51:47;163109.72;;;3.50;100.00
41688;BME280;27371;42.686;23.362;2024-03-08T02:54:13;163133.72;;;3.59;100.00
41688;BME280;27371;42.686;23.362;2024-03-08T02:56:38;163097.78;;;3.45;100.00
41688;BME280;27371;42.686;23.362;2024-03-08T02:59:04;163161.66;;;3.70;100.00
41688;BME280;27371;42.686;23.362;2024-03-08T03:01:29;163140.38;;;3.62;100.00
41688;BME280;27371;42.686;23.362;2024-03-08T03:03:55;163153.69;;;3.67;100.00
41688;BME280;27371;42.686;23.362;2024-03-08T03:06:21;163151.00;;;3.66;100.00
41688;BME280;27371;42.686;23.362;2024-03-08T03:08:46;163174.97;;;3.75;100.00
41688;BME280;27371;42.686;23.362;2024-03-08T03:11:12;163180.25;;;3.77;100.00
41688;BME280;27371;42.686;23.362;2024-03-08T03:13:39;163208.22;;;3.88;100.00
41688;BME280;27371;42.686;23.362;2024-03-08T03:16:05;163169.63;;;3.73;100.00
41688;BME280;27371;42.686;23.362;2024-03-08T03:18:30;163113.75;;;3.51;100.00
41688;BME280;27371;42.686;23.362;2024-03-08T03:20:58;163049.91;;;3.27;100.00
41688;BME280;27371;42.686;23.362;2024-03-08T03:23:24;163021.97;;;3.16;100.00
41688;BME280;27371;42.686;23.362;2024-03-08T03:25:51;163041.91;;;3.24;100.00
41688;BME280;27371;42.686;23.362;2024-03-08T03:28:17;163069.84;;;3.34;100.00
41688;BME280;27371;42.686;23.362;2024-03-08T03:30:46;163061.88;;;3.31;100.00
41688;BME280;27371;42.686;23.362;2024-03-08T03:33:12;163115.06;;;3.52;100.00
41688;BME280;27371;42.686;23.362;2024-03-08T03:35:40;163124.38;;;3.55;100.00
41688;BME280;27371;42.686;23.362;2024-03-08T03:38:06;163085.81;;;3.41;100.00
41688;BME280;27371;42.686;23.362;2024-03-08T03:40:36;163059.19;;;3.30;100.00
41688;BME280;27371;42.686;23.362;2024-03-08T03:43:02;163084.50;;;3.40;100.00
41688;BME280;27371;42.686;23.362;2024-03-08T03:45:29;163072.50;;;3.35;100.00
41688;BME280;27371;42.686;23.362;2024-03-08T03:47:54;163095.09;;;3.44;100.00
41688;BME280;27371;42.686;23.362;2024-03-08T03:50:21;163117.75;;;3.53;100.00
41688;BME280;27371;42.686;23.362;2024-03-08T03:52:47;163132.41;;;3.59;100.00
41688;BME280;27371;42.686;23.362;2024-03-08T03:55:14;163065.84;;;3.33;100.00
41688;BME280;27371;42.686;23.362;2024-03-08T03:57:39;163174.97;;;3.75;100.00
41688;BME280;27371;42.686;23.362;2024-03-08T04:00:06;163170.97;;;3.73;100.00
41688;BME280;27371;42.686;23.362;2024-03-08T04:02:36;163168.31;;;3.72;100.00
41688;BME280;27371;42.686;23.362;2024-03-08T04:05:03;163178.94;;;3.76;100.00
41688;BME280;27371;42.686;23.362;2024-03-08T04:07:28;163178.94;;;3.76;100.00
41688;BME280;27371;42.686;23.362;2024-03-08T04:09:54;163112.44;;;3.51;100.00
41688;BME280;27371;42.686;23.362;2024-03-08T04:12:19;163041.91;;;3.24;100.00
41688;BME280;27371;42.686;23.362;2024-03-08T04:14:45;163044.56;;;3.25;100.00
41688;BME280;27371;42.686;23.362;2024-03-08T04:17:10;162936.84;;;2.83;100.00
41688;BME280;27371;42.686;23.362;2024-03-08T04:19:37;163019.31;;;3.15;100.00
41688;BME280;27371;42.686;23.362;2024-03-08T04:22:03;163021.97;;;3.16;100.00
41688;BME280;27371;42.686;23.362;2024-03-08T04:24:29;162976.75;;;2.99;100.00
41688;BME280;27371;42.686;23.362;2024-03-08T04:26:56;163036.59;;;3.22;100.00
41688;BME280;27371;42.686;23.362;2024-03-08T04:29:23;163004.69;;;3.09;100.00
41688;BME280;27371;42.686;23.362;2024-03-08T04:31:48;163006.00;;;3.10;100.00
41688;BME280;27371;42.686;23.362;2024-03-08T04:34:14;163012.66;;;3.12;100.00
41688;BME280;27371;42.686;23.362;2024-03-08T04:36:40;163056.53;;;3.29;100.00
41688;BME280;27371;42.686;23.362;2024-03-08T04:39:05;163069.84;;;3.34;100.00
41688;BME280;27371;42.686;23.362;2024-03-08T04:41:31;163089.81;;;3.42;100.00
41688;BME280;27371;42.686;23.362;2024-03-08T04:43:59;163111.09;;;3.50;100.00
41688;BME280;27371;42.686;23.362;2024-03-08T04:46:25;163084.50;;;3.40;100.00
41688;BME280;27371;42.686;23.362;2024-03-08T04:48:50;163043.25;;;3.24;100.00
41688;BME280;27371;42.686;23.362;2024-03-08T04:51:16;163006.00;;;3.10;100.00
41688;BME280;27371;42.686;23.362;2024-03-08T04:53:41;162964.78;;;2.94;100.00
41688;BME280;27371;42.686;23.362;2024-03-08T04:56:07;162988.75;;;3.03;100.00
41688;BME280;27371;42.686;23.362;2024-03-08T04:58:35;163053.91;;;3.28;100.00
41688;BME280;27371;42.686;23.362;2024-03-08T05:01:01;163057.88;;;3.30;100.00
41688;BME280;27371;42.686;23.362;2024-03-08T05:03:27;163028.59;;;3.19;100.00
41688;BME280;27371;42.686;23.362;2024-03-08T05:05:52;163023.28;;;3.17;100.00
41688;BME280;27371;42.686;23.362;2024-03-08T05:08:18;163015.31;;;3.13;100.00
41688;BME280;27371;42.686;23.362;2024-03-08T05:10:45;163029.94;;;3.19;100.00
41688;BME280;27371;42.686;23.362;2024-03-08T05:13:10;163007.34;;;3.10;100.00
41688;BME280;27371;42.686;23.362;2024-03-08T05:15:38;163036.59;;;3.22;100.00
41688;BME280;27371;42.686;23.362;2024-03-08T05:18:04;163040.59;;;3.23;100.00
41688;BME280;27371;42.686;23.362;2024-03-08T05:20:30;163079.16;;;3.38;100.00
41688;BME280;27371;42.686;23.362;2024-03-08T05:22:56;163095.09;;;3.44;100.00
41688;BME280;27371;42.686;23.362;2024-03-08T05:25:25;163056.53;;;3.29;100.00
41688;BME280;27371;42.686;23.362;2024-03-08T05:27:51;163073.81;;;3.36;100.00
41688;BME280;27371;42.686;23.362;2024-03-08T05:30:18;163092.47;;;3.43;100.00
41688;BME280;27371;42.686;23.362;2024-03-08T05:32:43;163069.84;;;3.34;100.00
41688;BME280;27371;42.686;23.362;2024-03-08T05:35:12;163085.81;;;3.41;100.00
41688;BME280;27371;42.686;23.362;2024-03-08T05:37:38;163080.47;;;3.39;100.00
41688;BME280;27371;42.686;23.362;2024-03-08T05:40:05;163018.00;;;3.15;100.00
41688;BME280;27371;42.686;23.362;2024-03-08T05:42:34;162971.44;;;2.97;100.00
41688;BME280;27371;42.686;23.362;2024-03-08T05:45:04;162934.22;;;2.82;100.00
41688;BME280;27371;42.686;23.362;2024-03-08T05:47:34;162946.19;;;2.87;100.00
41688;BME280;27371;42.686;23.362;2024-03-08T05:50:00;162916.94;;;2.76;100.00
41688;BME280;27371;42.686;23.362;2024-03-08T05:52:26;162944.81;;;2.86;100.00
41688;BME280;27371;42.686;23.362;2024-03-08T05:54:52;162931.56;;;2.81;100.00
41688;BME280;27371;42.686;23.362;2024-03-08T05:57:18;162960.81;;;2.93;100.00
41688;BME280;27371;42.686;23.362;2024-03-08T05:59:44;162916.94;;;2.76;100.00
41688;BME280;27371;42.686;23.362;2024-03-08T06:02:09;162944.81;;;2.86;100.00
41688;BME280;27371;42.686;23.362;2024-03-08T06:04:35;162951.47;;;2.89;100.00
41688;BME280;27371;42.686;23.362;2024-03-08T06:07:00;162932.88;;;2.82;100.00
41688;BME280;27371;42.686;23.362;2024-03-08T06:09:28;162890.34;;;2.65;100.00
41688;BME280;27371;42.686;23.362;2024-03-08T06:11:54;162867.75;;;2.57;100.00
41688;BME280;27371;42.686;23.362;2024-03-08T06:14:20;162983.41;;;3.01;100.00
41688;BME280;27371;42.686;23.362;2024-03-08T06:16:46;163025.97;;;3.18;100.00
41688;BME280;27371;42.686;23.362;2024-03-08T06:19:13;162948.81;;;2.88;100.00
41688;BME280;27371;42.686;23.362;2024-03-08T06:21:39;163011.34;;;3.12;100.00
41688;BME280;27371;42.686;23.362;2024-03-08T06:24:05;162960.81;;;2.93;100.00
41688;BME280;27371;42.686;23.362;2024-03-08T06:26:30;162906.28;;;2.72;100.00
41688;BME280;27371;42.686;23.362;2024-03-08T06:28:56;162845.09;;;2.48;100.00
41688;BME280;27371;42.686;23.362;2024-03-08T06:31:22;162866.38;;;2.56;100.00
41688;BME280;27371;42.686;23.362;2024-03-08T06:33:48;162874.38;;;2.59;100.00
41688;BME280;27371;42.686;23.362;2024-03-08T06:36:17;162919.56;;;2.77;100.00
41688;BME280;27371;42.686;23.362;2024-03-08T06:38:49;162896.97;;;2.68;100.00
41688;BME280;27371;42.686;23.362;2024-03-08T06:41:15;162954.16;;;2.90;100.00
41688;BME280;27371;42.686;23.362;2024-03-08T06:43:45;162902.25;;;2.70;100.00
41688;BME280;27371;42.686;23.362;2024-03-08T06:46:11;162870.38;;;2.58;100.00
41688;BME280;27371;42.686;23.362;2024-03-08T06:48:39;162947.50;;;2.87;100.00
41688;BME280;27371;42.686;23.362;2024-03-08T06:51:05;162920.91;;;2.77;100.00
41688;BME280;27371;42.686;23.362;2024-03-08T06:53:31;162959.44;;;2.92;100.00
41688;BME280;27371;42.686;23.362;2024-03-08T06:55:57;162919.56;;;2.77;100.00
41688;BME280;27371;42.686;23.362;2024-03-08T06:58:23;162975.44;;;2.98;100.00
41688;BME280;27371;42.686;23.362;2024-03-08T07:00:49;162991.38;;;3.04;100.00
41688;BME280;27371;42.686;23.362;2024-03-08T07:03:18;163061.88;;;3.31;100.00
41688;BME280;27371;42.686;23.362;2024-03-08T07:05:43;163092.47;;;3.43;100.00
41688;BME280;27371;42.686;23.362;2024-03-08T07:08:09;163052.53;;;3.28;100.00
41688;BME280;27371;42.686;23.362;2024-03-08T07:10:35;163124.38;;;3.55;100.00
41688;BME280;27371;42.686;23.362;2024-03-08T07:13:02;163100.44;;;3.46;100.00
41688;BME280;27371;42.686;23.362;2024-03-08T07:15:28;163198.91;;;3.84;99.82
41688;BME280;27371;42.686;23.362;2024-03-08T07:17:54;163160.28;;;3.69;98.94
41688;BME280;27371;42.686;23.362;2024-03-08T07:20:32;163085.81;;;3.41;95.48
41688;BME280;27371;42.686;23.362;2024-03-08T07:22:57;163032.63;;;3.20;97.66
41688;BME280;27371;42.686;23.362;2024-03-08T07:25:23;163016.63;;;3.14;99.58
41688;BME280;27371;42.686;23.362;2024-03-08T07:27:55;163011.34;;;3.12;100.00
41688;BME280;27371;42.686;23.362;2024-03-08T07:30:22;163049.91;;;3.27;100.00
41688;BME280;27371;42.686;23.362;2024-03-08T07:33:07;163112.44;;;3.51;100.00
41688;BME280;27371;42.686;23.362;2024-03-08T07:35:33;163119.09;;;3.53;100.00
41688;BME280;27371;42.686;23.362;2024-03-08T07:38:06;163108.41;;;3.49;100.00
41688;BME280;27371;42.686;23.362;2024-03-08T07:40:39;163162.97;;;3.70;100.00
41688;BME280;27371;42.686;23.362;2024-03-08T07:43:09;163149.66;;;3.65;100.00
41688;BME280;27371;42.686;23.362;2024-03-08T07:45:36;163177.63;;;3.76;100.00
41688;BME280;27371;42.686;23.362;2024-03-08T07:48:02;163226.84;;;3.95;100.00
41688;BME280;27371;42.686;23.362;2024-03-08T07:50:28;163212.22;;;3.89;100.00
41688;BME280;27371;42.686;23.362;2024-03-08T07:52:54;163224.16;;;3.94;100.00
41688;BME280;27371;42.686;23.362;2024-03-08T07:55:20;163254.81;;;4.06;100.00
41688;BME280;27371;42.686;23.362;2024-03-08T07:57:45;163355.94;;;4.44;100.00
41688;BME280;27371;42.686;23.362;2024-03-08T08:00:13;163379.91;;;4.54;98.27
41688;BME280;27371;42.686;23.362;2024-03-08T08:02:46;163403.84;;;4.63;97.64
41688;BME280;27371;42.686;23.362;2024-03-08T08:05:11;163411.88;;;4.66;96.22
41688;BME280;27371;42.686;23.362;2024-03-08T08:07:37;163470.44;;;4.88;94.59
41688;BME280;27371;42.686;23.362;2024-03-08T08:10:03;163473.09;;;4.89;94.04
41688;BME280;27371;42.686;23.362;2024-03-08T08:12:31;163469.13;;;4.88;92.57
41688;BME280;27371;42.686;23.362;2024-03-08T08:14:59;163421.19;;;4.69;90.63
41688;BME280;27371;42.686;23.362;2024-03-08T08:17:25;163337.28;;;4.37;90.86
41688;BME280;27371;42.686;23.362;2024-03-08T08:19:51;163370.59;;;4.50;91.07
41688;BME280;27371;42.686;23.362;2024-03-08T08:22:16;163340.00;;;4.38;92.01
41688;BME280;27371;42.686;23.362;2024-03-08T08:24:43;163393.22;;;4.59;93.88
41688;BME280;27371;42.686;23.362;2024-03-08T08:27:08;163434.50;;;4.75;93.48
41688;BME280;27371;42.686;23.362;2024-03-08T08:29:34;163470.44;;;4.88;92.18
41688;BME280;27371;42.686;23.362;2024-03-08T08:32:00;163429.16;;;4.73;90.24
41688;BME280;27371;42.686;23.362;2024-03-08T08:34:26;163455.81;;;4.83;90.03
41688;BME280;27371;42.686;23.362;2024-03-08T08:36:52;163462.47;;;4.85;88.58
41688;BME280;27371;42.686;23.362;2024-03-08T08:39:18;163437.13;;;4.76;89.88
41688;BME280;27371;42.686;23.362;2024-03-08T08:41:44;163502.38;;;5.01;89.00
41688;BME280;27371;42.686;23.362;2024-03-08T08:44:10;163521.03;;;5.08;88.07
41688;BME280;27371;42.686;23.362;2024-03-08T08:46:38;163534.38;;;5.13;86.69
41688;BME280;27371;42.686;23.362;2024-03-08T08:49:06;163586.31;;;5.33;86.99
41688;BME280;27371;42.686;23.362;2024-03-08T08:51:38;163652.88;;;5.58;86.82
41688;BME280;27371;42.686;23.362;2024-03-08T08:54:04;163698.16;;;5.76;84.26
41688;BME280;27371;42.686;23.362;2024-03-08T08:56:31;163784.81;;;6.09;83.21
41688;BME280;27371;42.686;23.362;2024-03-08T08:58:58;163811.50;;;6.19;81.20
41688;BME280;27371;42.686;23.362;2024-03-08T09:01:23;163824.81;;;6.24;81.08
41688;BME280;27371;42.686;23.362;2024-03-08T09:03:49;163848.78;;;6.34;81.73
41688;BME280;27371;42.686;23.362;2024-03-08T09:06:15;163890.13;;;6.50;81.49
41688;BME280;27371;42.686;23.362;2024-03-08T09:08:42;163911.47;;;6.58;81.21
41688;BME280;27371;42.686;23.362;2024-03-08T09:11:09;163962.09;;;6.77;82.31
41688;BME280;27371;42.686;23.362;2024-03-08T09:13:35;163986.13;;;6.86;81.18
41688;BME280;27371;42.686;23.362;2024-03-08T09:16:02;164014.09;;;6.97;79.95
41688;BME280;27371;42.686;23.362;2024-03-08T09:18:28;164067.47;;;7.18;78.22
41688;BME280;27371;42.686;23.362;2024-03-08T09:20:54;164060.78;;;7.15;77.92
41688;BME280;27371;42.686;23.362;2024-03-08T09:23:20;164092.78;;;7.27;78.82
41688;BME280;27371;42.686;23.362;2024-03-08T09:25:45;164048.78;;;7.10;79.23
41688;BME280;27371;42.686;23.362;2024-03-08T09:28:12;164116.81;;;7.36;79.18
41688;BME280;27371;42.686;23.362;2024-03-08T09:30:38;164174.16;;;7.58;78.93
41688;BME280;27371;42.686;23.362;2024-03-08T09:33:05;164211.50;;;7.73;77.81
41688;BME280;27371;42.686;23.362;2024-03-08T09:35:31;164178.13;;;7.60;77.63
41688;BME280;27371;42.686;23.362;2024-03-08T09:37:57;164136.78;;;7.44;76.37
41688;BME280;27371;42.686;23.362;2024-03-08T09:40:22;164178.13;;;7.60;76.58
41688;BME280;27371;42.686;23.362;2024-03-08T09:42:50;164195.50;;;7.67;76.64
41688;BME280;27371;42.686;23.362;2024-03-08T09:45:20;164287.50;;;8.02;74.48
41688;BME280;27371;42.686;23.362;2024-03-08T09:47:47;164140.81;;;7.46;72.39
41688;BME280;27371;42.686;23.362;2024-03-08T09:50:14;164254.19;;;7.89;71.86
41688;BME280;27371;42.686;23.362;2024-03-08T09:52:40;164328.88;;;8.18;70.59
41688;BME280;27371;42.686;23.362;2024-03-08T09:55:06;164372.91;;;8.35;70.36
41688;BME280;27371;42.686;23.362;2024-03-08T09:57:36;164378.28;;;8.37;69.04
41688;BME280;27371;42.686;23.362;2024-03-08T10:00:03;164359.56;;;8.30;68.86
41688;BME280;27371;42.686;23.362;2024-03-08T10:02:45;164344.91;;;8.24;70.86
41688;BME280;27371;42.686;23.362;2024-03-08T10:05:12;164327.56;;;8.17;70.22
41688;BME280;27371;42.686;23.362;2024-03-08T10:07:37;164279.53;;;7.99;71.41
41688;BME280;27371;42.686;23.362;2024-03-08T10:10:03;164174.16;;;7.58;72.09
41688;BME280;27371;42.686;23.362;2024-03-08T10:12:29;164107.44;;;7.33;72.75
41688;BME280;27371;42.686;23.362;2024-03-08T10:14:55;164046.13;;;7.09;73.14
41688;BME280;27371;42.686;23.362;2024-03-08T10:17:21;164103.47;;;7.31;72.63
41688;BME280;27371;42.686;23.362;2024-03-08T10:19:51;164079.44;;;7.22;72.18
41688;BME280;27371;42.686;23.362;2024-03-08T10:22:19;164112.78;;;7.35;72.73
41688;BME280;27371;42.686;23.362;2024-03-08T10:24:48;164146.16;;;7.48;72.05
41688;BME280;27371;42.686;23.362;2024-03-08T10:27:16;164155.47;;;7.51;71.57
41688;BME280;27371;42.686;23.362;2024-03-08T10:29:41;164078.09;;;7.22;71.20
41688;BME280;27371;42.686;23.362;2024-03-08T10:32:10;164116.81;;;7.36;72.33
41688;BME280;27371;42.686;23.362;2024-03-08T10:34:35;164130.16;;;7.42;71.49
41688;BME280;27371;42.686;23.362;2024-03-08T10:37:03;164143.44;;;7.47;70.95
41688;BME280;27371;42.686;23.362;2024-03-08T10:39:35;164187.50;;;7.64;71.67
41688;BME280;27371;42.686;23.362;2024-03-08T10:42:03;164199.47;;;7.68;71.78
41688;BME280;27371;42.686;23.362;2024-03-08T10:49:39;164192.81;;;7.66;71.95
41688;BME280;27371;42.686;23.362;2024-03-08T10:52:11;164202.19;;;7.69;71.14
41688;BME280;27371;42.686;23.362;2024-03-08T10:54:37;164220.81;;;7.76;71.44
41688;BME280;27371;42.686;23.362;2024-03-08T10:57:06;164096.78;;;7.29;69.73
41688;BME280;27371;42.686;23.362;2024-03-08T10:59:34;164075.47;;;7.21;72.23
41688;BME280;27371;42.686;23.362;2024-03-08T11:02:00;164128.78;;;7.41;72.60
41688;BME280;27371;42.686;23.362;2024-03-08T11:04:26;164103.47;;;7.31;70.88
41688;BME280;27371;42.686;23.362;2024-03-08T11:07:00;164080.81;;;7.23;70.48
41688;BME280;27371;42.686;23.362;2024-03-08T11:09:38;164091.44;;;7.27;70.37
41688;BME280;27371;42.686;23.362;2024-03-08T11:14:56;164099.44;;;7.30;69.96
41688;BME280;27371;42.686;23.362;2024-03-08T11:19:59;164003.44;;;6.93;70.69
41688;BME280;27371;42.686;23.362;2024-03-08T11:22:33;164043.44;;;7.08;71.19
41688;BME280;27371;42.686;23.362;2024-03-08T11:25:01;164154.16;;;7.51;70.73
41688;BME280;27371;42.686;23.362;2024-03-08T11:27:30;164214.16;;;7.74;70.14
41688;BME280;27371;42.686;23.362;2024-03-08T11:30:21;164252.88;;;7.89;68.99
41688;BME280;27371;42.686;23.362;2024-03-08T11:32:50;164200.81;;;7.69;67.54
41688;BME280;27371;42.686;23.362;2024-03-08T11:35:20;164130.16;;;7.42;68.45
41688;BME280;27371;42.686;23.362;2024-03-08T11:37:46;164014.09;;;6.97;70.18
41688;BME280;27371;42.686;23.362;2024-03-08T11:40:13;164032.78;;;7.04;70.76
41688;BME280;27371;42.686;23.362;2024-03-08T11:42:47;164016.78;;;6.98;69.82
41688;BME280;27371;42.686;23.362;2024-03-08T11:45:17;164056.78;;;7.13;69.12
41688;BME280;27371;42.686;23.362;2024-03-08T11:47:44;164066.13;;;7.17;67.87
41688;BME280;27371;42.686;23.362;2024-03-08T11:50:16;164003.44;;;6.93;68.24
41688;BME280;27371;42.686;23.362;2024-03-08T11:52:44;164031.47;;;7.04;67.95
41688;BME280;27371;42.686;23.362;2024-03-08T11:55:11;164091.44;;;7.27;67.53
41688;BME280;27371;42.686;23.362;2024-03-08T11:57:38;164116.81;;;7.36;66.89
41688;BME280;27371;42.686;23.362;2024-03-08T12:00:04;164180.84;;;7.61;65.96
41688;BME280;27371;42.686;23.362;2024-03-08T12:02:33;164210.19;;;7.72;65.04
41688;BME280;27371;42.686;23.362;2024-03-08T12:05:04;164188.84;;;7.64;64.63
41688;BME280;27371;42.686;23.362;2024-03-08T12:07:31;164184.81;;;7.63;64.44
41688;BME280;27371;42.686;23.362;2024-03-08T12:10:20;164223.53;;;7.77;65.38
41688;BME280;27371;42.686;23.362;2024-03-08T12:12:48;164208.81;;;7.72;64.18
41688;BME280;27371;42.686;23.362;2024-03-08T12:15:19;164180.84;;;7.61;65.25
41688;BME280;27371;42.686;23.362;2024-03-08T12:17:47;164204.84;;;7.70;64.58
41688;BME280;27371;42.686;23.362;2024-03-08T12:22:43;164212.81;;;7.73;63.90
41688;BME280;27371;42.686;23.362;2024-03-08T12:25:11;164072.81;;;7.20;65.38
41688;BME280;27371;42.686;23.362;2024-03-08T12:27:38;163984.78;;;6.86;69.15
41688;BME280;27371;42.686;23.362;2024-03-08T12:33:03;164066.13;;;7.17;69.27
41688;BME280;27371;42.686;23.362;2024-03-08T12:35:30;164050.09;;;7.11;68.66
41688;BME280;27371;42.686;23.362;2024-03-08T12:37:58;164066.13;;;7.17;67.51
41688;BME280;27371;42.686;23.362;2024-03-08T12:40:31;164038.13;;;7.06;67.81
41688;BME280;27371;42.686;23.362;2024-03-08T12:43:01;164031.47;;;7.04;67.71
41688;BME280;27371;42.686;23.362;2024-03-08T12:45:31;164063.44;;;7.16;68.42
41688;BME280;27371;42.686;23.362;2024-03-08T12:47:57;164048.78;;;7.10;66.87
41688;BME280;27371;42.686;23.362;2024-03-08T12:50:25;164011.44;;;6.96;68.39
41688;BME280;27371;42.686;23.362;2024-03-08T12:52:51;163986.13;;;6.86;70.14
41688;BME280;27371;42.686;23.362;2024-03-08T12:55:18;164011.44;;;6.96;69.28
41688;BME280;27371;42.686;23.362;2024-03-08T12:57:44;163966.13;;;6.79;70.36
41688;BME280;27371;42.686;23.362;2024-03-08T13:00:11;163964.81;;;6.78;70.06
41688;BME280;27371;42.686;23.362;2024-03-08T13:02:47;163907.47;;;6.56;69.78